createdAt,value
2023-12-05T00:01:39.948Z,63.73
2023-12-05T00:04:14.433Z,66.57
2023-12-05T00:06:47.697Z,69.30
2023-12-05T00:09:20.829Z,71.35
2023-12-05T00:11:53.837Z,76.43
2023-12-05T00:14:26.682Z,69.70
2023-12-05T00:16:59.548Z,71.57
2023-12-05T00:19:34.037Z,67.47
2023-12-05T00:22:07.271Z,78.70
2023-12-05T00:24:40.221Z,73.72
2023-12-05T00:27:13.928Z,75.07
2023-12-05T00:29:48.142Z,70.50
2023-12-05T00:32:21.051Z,65.10
2023-12-05T00:34:55.483Z,74.93
2023-12-05T00:37:28.362Z,73.57
2023-12-05T00:40:01.315Z,64.83
2023-12-05T00:42:34.406Z,52.60
2023-12-05T00:45:08.025Z,71.00
2023-12-05T00:47:40.965Z,70.00
2023-12-05T00:50:15.277Z,79.20
2023-12-05T00:52:48.304Z,74.57
2023-12-05T00:55:22.150Z,74.90
2023-12-05T00:57:55.583Z,66.13
2023-12-05T01:00:28.571Z,69.32
2023-12-05T01:03:01.499Z,74.83
2023-12-05T01:05:36.715Z,64.77
2023-12-05T01:08:09.833Z,69.00
2023-12-05T01:10:42.831Z,72.60
2023-12-05T01:13:15.803Z,48.47
2023-12-05T01:15:48.796Z,68.77
2023-12-05T01:18:21.898Z,70.07
2023-12-05T01:20:56.159Z,51.33
2023-12-05T01:23:29.105Z,58.37
2023-12-05T01:26:02.043Z,61.97
2023-12-05T01:28:35.005Z,63.78
2023-12-05T01:31:08.494Z,65.80
2023-12-05T01:33:41.466Z,64.32
2023-12-05T01:36:16.333Z,64.33
2023-12-05T01:38:49.205Z,61.92
2023-12-05T01:41:22.290Z,66.40
2023-12-05T01:43:55.260Z,61.28
2023-12-05T01:46:28.155Z,62.47
2023-12-05T01:49:06.370Z,64.15
2023-12-05T01:51:45.829Z,66.47
2023-12-05T01:54:18.864Z,65.03
2023-12-05T01:56:51.744Z,72.87
2023-12-05T01:59:24.937Z,59.15
2023-12-05T02:01:57.985Z,50.70
2023-12-05T02:04:32.188Z,65.50
2023-12-05T02:07:06.649Z,67.90
2023-12-05T02:09:40.216Z,62.20
2023-12-05T02:12:13.226Z,68.05
2023-12-05T02:14:46.460Z,70.70
2023-12-05T02:17:26.624Z,70.70
2023-12-05T02:20:11.025Z,67.67
2023-12-05T02:23:18.418Z,74.47
2023-12-05T02:26:09.086Z,69.17
2023-12-05T02:28:44.014Z,68.70
2023-12-05T02:31:16.917Z,64.55
2023-12-05T02:33:50.907Z,61.03
2023-12-05T02:36:44.233Z,69.60
2023-12-05T02:39:26.354Z,67.40
2023-12-05T02:42:02.783Z,72.15
2023-12-05T02:44:41.013Z,71.83
2023-12-05T02:47:15.381Z,69.63
2023-12-05T02:49:48.472Z,68.90
2023-12-05T02:52:27.306Z,66.57
2023-12-05T02:55:00.206Z,66.40
2023-12-05T02:57:33.658Z,68.05
2023-12-05T03:00:09.732Z,71.37
2023-12-05T03:02:42.706Z,69.47
2023-12-05T03:05:15.927Z,59.17
2023-12-05T03:07:48.875Z,64.78
2023-12-05T03:10:21.737Z,64.97
2023-12-05T03:12:54.652Z,60.10
2023-12-05T03:15:29.095Z,65.40
2023-12-05T03:18:02.787Z,67.25
2023-12-05T03:20:35.886Z,54.80
2023-12-05T03:23:08.857Z,71.67
2023-12-05T03:25:41.768Z,62.07
2023-12-05T03:28:14.603Z,58.23
2023-12-05T03:30:49.147Z,65.33
2023-12-05T03:33:22.211Z,62.90
2023-12-05T03:35:55.089Z,61.73
2023-12-05T03:38:27.923Z,54.03
2023-12-05T03:41:01.136Z,58.40
2023-12-05T03:43:34.072Z,53.92
2023-12-05T03:46:08.956Z,55.30
2023-12-05T03:48:42.060Z,55.73
2023-12-05T03:51:15.281Z,63.80
2023-12-05T03:53:48.580Z,55.72
2023-12-05T03:56:21.458Z,62.80
2023-12-05T03:58:55.406Z,57.87
2023-12-05T04:04:02.804Z,56.40
2023-12-05T04:06:35.901Z,44.53
2023-12-05T04:09:08.945Z,50.30
2023-12-05T04:11:41.898Z,46.30
2023-12-05T04:14:15.227Z,51.60
2023-12-05T04:16:49.474Z,53.65
2023-12-05T04:19:22.575Z,56.10
2023-12-05T04:21:55.666Z,52.67
2023-12-05T04:24:28.641Z,49.83
2023-12-05T04:27:01.515Z,51.27
2023-12-05T04:29:34.401Z,52.27
2023-12-05T04:32:08.801Z,56.27
2023-12-05T04:34:44.292Z,49.10
2023-12-05T04:37:17.210Z,48.40
2023-12-05T04:39:50.107Z,56.23
2023-12-05T04:42:22.976Z,55.30
2023-12-05T04:44:55.832Z,59.07
2023-12-05T04:47:30.640Z,53.20
2023-12-05T04:50:03.946Z,49.43
2023-12-05T04:52:37.082Z,48.83
2023-12-05T04:55:10.337Z,46.80
2023-12-05T04:57:43.221Z,46.60
2023-12-05T05:00:17.104Z,43.97
2023-12-05T05:02:51.489Z,40.58
2023-12-05T05:05:24.475Z,47.03
2023-12-05T05:07:57.424Z,42.53
2023-12-05T05:10:30.913Z,31.45
2023-12-05T05:13:03.837Z,46.30
2023-12-05T05:15:36.790Z,51.23
2023-12-05T05:18:11.093Z,46.17
2023-12-05T05:20:44.080Z,55.90
2023-12-05T05:23:17.372Z,53.47
2023-12-05T05:25:50.478Z,49.97
2023-12-05T05:28:23.460Z,52.40
2023-12-05T05:30:56.690Z,47.00
2023-12-05T05:33:31.202Z,49.80
2023-12-05T05:36:04.653Z,45.87
2023-12-05T05:38:37.808Z,45.55
2023-12-05T05:41:12.749Z,45.38
2023-12-05T05:43:45.659Z,52.60
2023-12-05T05:46:18.612Z,48.03
2023-12-05T05:48:52.925Z,47.58
2023-12-05T05:51:26.677Z,49.53
2023-12-05T05:54:00.583Z,46.15
2023-12-05T05:59:12.362Z,39.90
2023-12-05T06:01:45.230Z,48.57
2023-12-05T06:04:19.696Z,55.70
2023-12-05T06:06:52.676Z,44.30
2023-12-05T06:09:25.642Z,49.83
2023-12-05T06:12:05.014Z,50.77
2023-12-05T06:14:38.027Z,46.57
2023-12-05T06:17:10.945Z,53.30
2023-12-05T06:19:45.438Z,54.50
2023-12-05T06:22:18.461Z,62.27
2023-12-05T06:24:51.603Z,64.80
2023-12-05T06:27:24.556Z,75.20
2023-12-05T06:30:00.029Z,74.63
2023-12-05T06:32:36.107Z,84.30
2023-12-05T06:35:10.792Z,101.70
2023-12-05T06:37:43.640Z,76.53
2023-12-05T06:40:16.949Z,74.27
2023-12-05T06:42:49.923Z,66.63
2023-12-05T06:45:22.823Z,77.63
2023-12-05T06:47:55.820Z,75.00
2023-12-05T06:50:30.161Z,79.67
2023-12-05T06:53:03.676Z,69.97
2023-12-05T06:55:37.546Z,71.20
2023-12-05T06:58:11.681Z,70.83
2023-12-05T07:00:44.852Z,62.30
2023-12-05T07:03:18.033Z,66.00
2023-12-05T07:05:52.407Z,58.53
2023-12-05T07:08:25.290Z,61.53
2023-12-05T07:10:58.193Z,61.17
2023-12-05T07:13:31.085Z,72.40
2023-12-05T07:16:03.954Z,81.03
2023-12-05T07:18:38.100Z,74.00
2023-12-05T07:21:12.482Z,81.57
2023-12-05T07:23:52.458Z,68.82
2023-12-05T07:26:31.940Z,87.35
2023-12-05T07:29:05.072Z,87.40
2023-12-05T07:31:38.070Z,86.60
2023-12-05T07:34:11.134Z,93.47
2023-12-05T07:36:45.619Z,71.07
2023-12-05T07:39:18.607Z,82.90
2023-12-05T07:41:51.478Z,76.15
2023-12-05T07:44:24.388Z,73.45
2023-12-05T07:47:00.234Z,84.70
2023-12-05T07:49:33.205Z,81.72
2023-12-05T07:52:07.845Z,76.50
2023-12-05T07:54:40.852Z,75.00
2023-12-05T07:57:13.830Z,75.03
2023-12-05T07:59:46.752Z,84.25
2023-12-05T08:02:19.826Z,72.70
2023-12-05T08:04:52.895Z,62.97
2023-12-05T08:07:28.740Z,62.72
2023-12-05T08:10:02.505Z,63.13
2023-12-05T08:12:35.679Z,57.42
2023-12-05T08:15:09.689Z,59.42
2023-12-05T08:20:15.373Z,62.83
2023-12-05T08:22:49.637Z,69.87
2023-12-05T08:25:22.679Z,64.15
2023-12-05T08:27:55.682Z,58.33
2023-12-05T08:30:28.604Z,57.92
2023-12-05T08:33:01.909Z,65.50
2023-12-05T08:35:34.799Z,63.85
2023-12-05T08:38:09.094Z,63.35
2023-12-05T08:40:41.994Z,55.28
2023-12-05T08:43:15.030Z,55.92
2023-12-05T08:45:48.135Z,57.30
2023-12-05T08:48:21.248Z,59.20
2023-12-05T08:50:54.423Z,56.53
2023-12-05T08:53:28.980Z,53.93
2023-12-05T08:56:05.312Z,57.30
2023-12-05T08:58:39.207Z,49.75
2023-12-05T09:01:13.039Z,49.65
2023-12-05T09:03:46.099Z,57.00
2023-12-05T09:06:19.307Z,46.35
2023-12-05T09:08:53.955Z,53.38
2023-12-05T09:11:27.496Z,42.70
2023-12-05T09:14:00.789Z,41.20
2023-12-05T09:16:33.817Z,39.47
2023-12-05T09:19:09.804Z,38.42
2023-12-05T09:24:16.843Z,36.72
2023-12-05T09:26:49.763Z,40.30
2023-12-05T09:29:23.268Z,39.00
2023-12-05T09:31:56.168Z,36.10
2023-12-05T09:34:29.115Z,40.07
2023-12-05T09:37:03.720Z,35.92
2023-12-05T09:39:38.605Z,39.55
2023-12-05T09:42:15.283Z,42.97
2023-12-05T09:44:49.647Z,39.45
2023-12-05T09:47:24.107Z,37.63
2023-12-05T09:49:57.548Z,40.17
2023-12-05T09:52:30.711Z,37.00
2023-12-05T09:55:06.296Z,37.10
2023-12-05T09:57:40.543Z,34.63
2023-12-05T10:00:20.518Z,34.35
2023-12-05T10:02:55.405Z,39.92
2023-12-05T10:05:31.762Z,40.58
2023-12-05T10:08:05.326Z,38.35
2023-12-05T10:10:41.041Z,42.92
2023-12-05T10:13:14.529Z,42.30
2023-12-05T10:15:48.300Z,45.55
2023-12-05T10:18:21.884Z,52.03
2023-12-05T10:23:28.001Z,36.30
2023-12-05T10:26:02.453Z,40.05
2023-12-05T10:28:50.161Z,39.35
2023-12-05T10:31:23.546Z,37.05
2023-12-05T10:34:07.119Z,38.50
2023-12-05T10:36:40.343Z,38.72
2023-12-05T10:39:13.300Z,38.67
2023-12-05T10:41:48.077Z,37.50
2023-12-05T10:44:23.970Z,39.28
2023-12-05T10:46:58.731Z,32.63
2023-12-05T10:49:32.055Z,38.90
2023-12-05T10:52:06.457Z,42.83
2023-12-05T10:54:41.029Z,41.83
2023-12-05T10:57:15.268Z,39.80
2023-12-05T10:59:51.869Z,36.28
2023-12-05T11:02:24.975Z,35.78
2023-12-05T11:04:58.190Z,33.20
2023-12-05T11:07:31.032Z,37.78
2023-12-05T11:10:05.288Z,36.63
2023-12-05T11:12:39.954Z,37.08
2023-12-05T11:15:17.626Z,34.63
2023-12-05T11:17:54.801Z,34.20
2023-12-05T11:20:53.836Z,37.53
2023-12-05T11:24:01.039Z,36.08
2023-12-05T11:26:51.089Z,34.55
2023-12-05T11:32:42.781Z,32.85
2023-12-05T11:35:25.723Z,36.15
2023-12-05T11:38:09.816Z,37.53
2023-12-05T11:40:42.266Z,33.92
2023-12-05T11:43:18.478Z,38.05
2023-12-05T11:45:59.736Z,35.35
2023-12-05T11:48:35.009Z,33.08
2023-12-05T11:51:08.280Z,35.35
2023-12-05T11:53:41.224Z,34.92
2023-12-05T11:56:20.216Z,45.55
2023-12-05T11:58:53.257Z,32.85
2023-12-05T12:01:26.224Z,37.53
2023-12-05T12:04:01.337Z,36.92
2023-12-05T12:06:34.438Z,32.80
2023-12-05T12:09:09.039Z,34.05
2023-12-05T12:11:44.013Z,32.15
2023-12-05T12:14:18.043Z,35.67
2023-12-05T12:16:52.330Z,30.23
2023-12-05T12:19:27.076Z,35.08
2023-12-05T12:22:05.553Z,34.20
2023-12-05T12:24:39.044Z,33.28
2023-12-05T12:27:12.713Z,31.23
2023-12-05T12:32:26.460Z,32.55
2023-12-05T12:35:02.229Z,37.72
2023-12-05T12:37:45.463Z,32.78
2023-12-05T12:40:23.825Z,39.30
2023-12-05T12:42:57.424Z,34.22
2023-12-05T12:45:30.977Z,36.75
2023-12-05T12:48:07.445Z,39.83
2023-12-05T12:50:41.904Z,36.10
2023-12-05T12:53:15.050Z,45.13
2023-12-05T12:55:48.194Z,42.35
2023-12-05T12:58:28.170Z,38.42
2023-12-05T13:01:01.298Z,35.13
2023-12-05T13:03:34.678Z,40.83
2023-12-05T13:06:09.441Z,36.85
2023-12-05T13:08:42.491Z,38.70
2023-12-05T13:11:43.446Z,40.60
2023-12-05T13:14:22.214Z,39.95
2023-12-05T13:16:59.465Z,42.15
2023-12-05T13:19:37.421Z,45.15
2023-12-05T13:22:15.655Z,45.15
2023-12-05T13:24:48.930Z,42.53
2023-12-05T13:27:22.121Z,51.22
2023-12-05T13:29:54.993Z,47.22
2023-12-05T13:32:27.924Z,52.97
2023-12-05T13:35:00.864Z,47.03
2023-12-05T13:37:35.205Z,40.53
2023-12-05T13:40:09.325Z,45.50
2023-12-05T13:42:42.266Z,46.47
2023-12-05T13:45:17.661Z,42.75
2023-12-05T13:47:51.532Z,50.63
2023-12-05T13:50:26.548Z,44.73
2023-12-05T13:53:00.787Z,50.17
2023-12-05T13:55:33.787Z,48.35
2023-12-05T13:58:06.789Z,47.33
2023-12-05T14:00:39.832Z,48.17
2023-12-05T14:03:12.778Z,47.63
2023-12-05T14:05:47.611Z,46.97
2023-12-05T14:08:22.374Z,62.55
2023-12-05T14:10:55.674Z,58.90
2023-12-05T14:13:28.642Z,71.85
2023-12-05T14:16:02.202Z,63.53
2023-12-05T14:18:35.478Z,76.85
2023-12-05T14:21:11.866Z,69.35
2023-12-05T14:24:34.666Z,69.15
2023-12-05T14:27:25.996Z,54.33
2023-12-05T14:30:11.049Z,56.35
2023-12-05T14:32:47.292Z,62.67
2023-12-05T14:35:21.985Z,58.47
2023-12-05T14:37:55.389Z,66.43
2023-12-05T14:40:28.495Z,71.07
2023-12-05T14:43:02.813Z,96.65
2023-12-05T14:45:35.785Z,88.95
2023-12-05T14:48:09.879Z,82.15
2023-12-05T14:50:43.059Z,88.53
2023-12-05T14:53:16.123Z,90.47
2023-12-05T14:55:49.106Z,84.50
2023-12-05T14:58:23.454Z,95.22
2023-12-05T15:01:00.958Z,92.20
2023-12-05T15:03:34.174Z,90.88
2023-12-05T15:06:07.762Z,96.23
2023-12-05T15:11:13.768Z,80.93
2023-12-05T15:13:48.373Z,84.72
2023-12-05T15:16:21.428Z,80.78
2023-12-05T15:18:56.280Z,84.83
2023-12-05T15:21:30.641Z,87.72
2023-12-05T15:24:14.831Z,83.85
2023-12-05T15:26:48.617Z,95.03
2023-12-05T15:29:28.757Z,103.07
2023-12-05T15:32:09.613Z,94.47
2023-12-05T15:34:43.010Z,78.53
2023-12-05T15:37:16.248Z,78.75
2023-12-05T15:39:49.399Z,76.45
2023-12-05T15:42:22.583Z,72.80
2023-12-05T15:44:58.357Z,68.85
2023-12-05T15:47:35.476Z,76.35
2023-12-05T15:50:11.156Z,76.75
2023-12-05T15:52:44.245Z,86.90
2023-12-05T15:55:17.163Z,83.15
2023-12-05T15:57:52.121Z,78.85
2023-12-05T16:00:26.452Z,85.90
2023-12-05T16:02:59.542Z,75.60
2023-12-05T16:05:46.415Z,86.67
2023-12-05T16:08:19.894Z,74.13
2023-12-05T16:10:58.441Z,79.40
2023-12-05T16:13:31.763Z,84.63
2023-12-05T16:16:07.150Z,105.93
2023-12-05T16:18:43.421Z,107.00
2023-12-05T16:23:53.098Z,88.82
2023-12-05T16:26:28.469Z,86.47
2023-12-05T16:29:01.469Z,77.85
2023-12-05T16:31:35.786Z,66.80
2023-12-05T16:34:09.437Z,72.88
2023-12-05T16:36:46.195Z,69.47
2023-12-05T16:39:19.662Z,64.00
2023-12-05T16:41:53.361Z,63.80
2023-12-05T16:44:26.615Z,76.05
2023-12-05T16:47:01.356Z,78.82
2023-12-05T16:49:34.746Z,76.25
2023-12-05T16:52:08.249Z,77.15
2023-12-05T16:54:41.809Z,80.55
2023-12-05T16:57:14.733Z,73.53
2023-12-05T16:59:48.105Z,75.03
2023-12-05T17:02:22.473Z,92.90
2023-12-05T17:04:55.637Z,95.90
2023-12-05T17:07:28.947Z,92.63
2023-12-05T17:10:02.347Z,100.47
2023-12-05T17:12:36.151Z,86.88
2023-12-05T17:15:10.363Z,75.00
2023-12-05T17:17:44.699Z,96.93
2023-12-05T17:20:17.929Z,92.28
2023-12-05T17:22:51.292Z,80.43
2023-12-05T17:25:24.903Z,87.65
2023-12-05T17:27:57.886Z,80.90
2023-12-05T17:30:30.999Z,93.00
2023-12-05T17:33:10.061Z,99.72
2023-12-05T17:35:43.072Z,92.43
2023-12-05T17:38:16.597Z,91.80
2023-12-05T17:40:49.789Z,94.97
2023-12-05T17:43:25.231Z,88.63
2023-12-05T17:45:58.259Z,85.32
2023-12-05T17:48:32.685Z,83.97
2023-12-05T17:51:06.483Z,76.35
2023-12-05T17:53:39.532Z,81.95
2023-12-05T17:56:13.027Z,73.18
2023-12-05T17:58:46.381Z,67.00
2023-12-05T18:01:19.318Z,71.60
2023-12-05T18:03:53.955Z,74.65
2023-12-05T18:06:26.959Z,88.95
2023-12-05T18:08:59.979Z,82.80
2023-12-05T18:11:32.905Z,84.90
2023-12-05T18:14:05.880Z,92.27
2023-12-05T18:16:38.811Z,101.28
2023-12-05T18:19:13.638Z,98.45
2023-12-05T18:21:46.626Z,92.15
2023-12-05T18:24:20.008Z,100.68
2023-12-05T18:26:53.185Z,92.75
2023-12-05T18:29:26.098Z,89.88
2023-12-05T18:31:59.000Z,94.35
2023-12-05T18:34:33.689Z,88.97
2023-12-05T18:37:06.958Z,98.38
2023-12-05T18:39:40.940Z,92.72
2023-12-05T18:42:15.125Z,94.32
2023-12-05T18:44:48.052Z,91.57
2023-12-05T18:47:21.283Z,95.82
2023-12-05T18:49:56.554Z,92.13
2023-12-05T18:52:29.746Z,106.05
2023-12-05T18:55:02.712Z,122.33
2023-12-05T18:57:35.765Z,123.35
2023-12-05T19:00:09.555Z,112.37
2023-12-05T19:02:42.498Z,112.82
2023-12-05T19:05:17.096Z,120.17
2023-12-05T19:07:50.166Z,107.70
2023-12-05T19:10:23.633Z,97.55
2023-12-05T19:12:58.658Z,100.88
2023-12-05T19:15:32.122Z,101.15
2023-12-05T19:18:05.709Z,103.03
2023-12-05T19:20:40.173Z,108.82
2023-12-05T19:23:13.182Z,111.20
2023-12-05T19:25:46.093Z,101.47
2023-12-05T19:28:20.589Z,110.85
2023-12-05T19:30:54.075Z,123.82
2023-12-05T19:33:27.353Z,132.35
2023-12-05T19:36:01.775Z,121.97
2023-12-05T19:38:36.315Z,134.63
2023-12-05T19:41:11.610Z,116.67
2023-12-05T19:43:44.576Z,122.95
2023-12-05T19:46:17.532Z,116.97
2023-12-05T19:48:51.001Z,126.35
2023-12-05T19:51:25.441Z,98.20
2023-12-05T19:53:59.649Z,120.40
2023-12-05T19:56:32.699Z,115.70
2023-12-05T19:59:05.735Z,120.67
2023-12-05T20:01:38.817Z,110.60
2023-12-05T20:04:12.165Z,123.72
2023-12-05T20:06:46.623Z,113.53
2023-12-05T20:09:19.553Z,115.30
2023-12-05T20:11:52.558Z,122.87
2023-12-05T20:14:25.577Z,131.13
2023-12-05T20:16:58.492Z,126.60
2023-12-05T20:19:31.926Z,139.52
2023-12-05T20:22:08.276Z,146.30
2023-12-05T20:24:41.294Z,147.43
2023-12-05T20:27:14.226Z,145.27
2023-12-05T20:29:47.458Z,152.85
2023-12-05T20:32:20.461Z,137.63
2023-12-05T20:34:53.442Z,119.30
2023-12-05T20:37:27.906Z,149.63
2023-12-05T20:40:01.018Z,144.50
2023-12-05T20:42:34.036Z,139.93
2023-12-05T20:45:07.978Z,140.67
2023-12-05T20:47:41.436Z,135.70
2023-12-05T20:50:14.487Z,135.23
2023-12-05T20:52:49.009Z,135.97
2023-12-05T20:55:21.965Z,125.95
2023-12-05T20:57:55.126Z,110.35
2023-12-05T21:00:28.135Z,119.78
2023-12-05T21:03:01.372Z,111.77
2023-12-05T21:05:34.419Z,117.90
2023-12-05T21:08:12.327Z,122.37
2023-12-05T21:10:45.250Z,127.90
2023-12-05T21:13:18.298Z,118.07
2023-12-05T21:15:51.341Z,132.73
2023-12-05T21:18:24.731Z,123.20
2023-12-05T21:20:57.881Z,125.75
2023-12-05T21:23:34.222Z,125.10
2023-12-05T21:26:07.224Z,114.38
2023-12-05T21:28:40.287Z,116.70
2023-12-05T21:31:13.395Z,119.85
2023-12-05T21:33:46.619Z,118.30
2023-12-05T21:36:22.918Z,123.38
2023-12-05T21:38:59.944Z,123.47
2023-12-05T21:41:33.201Z,111.20
2023-12-05T21:44:06.244Z,107.53
2023-12-05T21:46:39.828Z,115.03
2023-12-05T21:49:12.969Z,110.20
2023-12-05T21:51:46.080Z,115.88
2023-12-05T21:54:20.457Z,114.90
2023-12-05T21:56:53.924Z,108.87
2023-12-05T21:59:26.857Z,102.70
2023-12-05T22:02:00.120Z,111.63
2023-12-05T22:04:34.623Z,109.65
2023-12-05T22:07:07.710Z,98.37
2023-12-05T22:09:42.139Z,112.43
2023-12-05T22:12:15.244Z,96.37
2023-12-05T22:14:49.062Z,108.30
2023-12-05T22:17:22.422Z,108.93
2023-12-05T22:19:55.538Z,99.78
2023-12-05T22:22:28.404Z,110.80
2023-12-05T22:25:02.752Z,100.77
2023-12-05T22:27:35.770Z,90.13
2023-12-05T22:30:10.261Z,107.23
2023-12-05T22:32:43.163Z,95.90
2023-12-05T22:35:16.281Z,92.67
2023-12-05T22:37:49.191Z,87.60
2023-12-05T22:40:23.606Z,99.37
2023-12-05T22:42:56.709Z,113.57
2023-12-05T22:45:29.719Z,89.45
2023-12-05T22:48:03.409Z,98.53
2023-12-05T22:50:36.391Z,79.20
2023-12-05T22:53:09.439Z,88.87
2023-12-05T22:55:43.745Z,69.83
2023-12-05T22:58:16.659Z,89.33
2023-12-05T23:00:49.837Z,100.13
2023-12-05T23:03:23.170Z,90.72
2023-12-05T23:05:56.619Z,95.70
2023-12-05T23:08:29.593Z,84.35
2023-12-05T23:11:03.997Z,88.50
2023-12-05T23:13:37.020Z,93.43
2023-12-05T23:16:10.354Z,79.13
2023-12-05T23:18:43.574Z,94.93
2023-12-05T23:21:16.934Z,91.93
2023-12-05T23:23:49.993Z,86.28
2023-12-05T23:26:24.321Z,88.40
2023-12-05T23:28:57.363Z,92.23
2023-12-05T23:31:30.261Z,92.63
2023-12-05T23:34:03.656Z,99.73
2023-12-05T23:36:36.682Z,86.50
2023-12-05T23:39:09.851Z,101.17
2023-12-05T23:41:44.332Z,96.13
2023-12-05T23:44:22.170Z,76.67
2023-12-05T23:46:55.093Z,91.13
2023-12-05T23:49:28.069Z,90.40
2023-12-05T23:52:02.588Z,84.93
2023-12-05T23:57:09.917Z,77.90
2023-12-05T23:59:42.920Z,87.83
